Time;durP1;ratioP1;P1;durP2;ratioP2;P2;SDS_P1;SDS_P2;PMS_P1;PMS_P2;Temp;Humidity;BMP_temperature;BMP_pressure;BME280_temperature;BME280_humidity;BME280_pressure;Samples;Min_cycle;Max_cycle;Signal;HPM_P1;HPM_P2
2023/03/09 00:01:15;;;;;;;77.45;27.55;;;;;;;;;;4951064;28;20102;-55
2023/03/09 00:03:41;;;;;;;69.78;26.40;;;;;;;;;;4947266;29;20058;-56
2023/03/09 00:06:09;;;;;;;110.28;29.83;;;;;;;;;;4949848;28;20066;-57
2023/03/09 00:08:35;;;;;;;95.38;29.15;;;;;;;;;;4949087;28;20094;-55
2023/03/09 00:11:03;;;;;;;89.15;29.10;;;;;;;;;;4950934;28;20054;-53
2023/03/09 00:13:29;;;;;;;84.45;28.65;;;;;;;;;;4951279;28;20054;-54
2023/03/09 00:15:56;;;;;;;121.60;29.67;;;;;;;;;;4947808;28;20138;-48
2023/03/09 00:18:23;;;;;;;71.47;27.08;;;;;;;;;;4950519;28;20048;-47
2023/03/09 00:20:49;;;;;;;60.53;25.10;;;;;;;;;;4950656;28;20043;-51
2023/03/09 00:23:19;;;;;;;102.32;28.60;;;;;;;;;;4949647;28;20039;-50
2023/03/09 00:25:45;;;;;;;91.95;26.85;;;;;;;;;;4951535;28;20043;-48
2023/03/09 00:28:12;;;;;;;84.72;27.25;;;;;;;;;;4949880;28;20476;-47
2023/03/09 00:30:38;;;;;;;80.95;26.65;;;;;;;;;;4949835;28;20078;-50
2023/03/09 00:33:04;;;;;;;78.28;25.45;;;;;;;;;;4951406;28;20548;-47
2023/03/09 00:35:34;;;;;;;97.28;29.23;;;;;;;;;;4953888;28;20051;-48
2023/03/09 00:38:00;;;;;;;87.10;23.85;;;;;;;;;;4953722;28;21088;-48
2023/03/09 00:40:27;;;;;;;76.13;25.02;;;;;;;;;;4954125;28;20044;-50
2023/03/09 00:42:54;;;;;;;87.40;26.05;;;;;;;;;;4953651;28;20933;-51
2023/03/09 00:45:22;;;;;;;75.95;24.65;;;;;;;;;;4951961;29;21012;-47
2023/03/09 00:47:49;;;;;;;80.30;25.27;;;;;;;;;;4953752;28;20047;-47
2023/03/09 00:50:16;;;;;;;88.15;27.63;;;;;;;;;;4953849;28;20492;-47
2023/03/09 00:52:42;;;;;;;64.43;24.48;;;;;;;;;;4952725;28;20047;-47
2023/03/09 00:55:09;;;;;;;78.10;24.83;;;;;;;;;;4951930;28;20047;-47
2023/03/09 00:57:36;;;;;;;92.60;27.55;;;;;;;;;;4953126;28;20039;-50
2023/03/09 01:00:04;;;;;;;91.03;26.40;;;;;;;;;;4953513;28;20041;-49
2023/03/09 01:02:30;;;;;;;74.35;25.20;;;;;;;;;;4953455;28;20054;-47
2023/03/09 01:04:57;;;;;;;93.18;28.25;;;;;;;;;;4952475;29;20047;-47
2023/03/09 01:07:23;;;;;;;83.55;26.95;;;;;;;;;;4950956;29;20047;-50
2023/03/09 01:09:50;;;;;;;89.22;27.35;;;;;;;;;;4952746;28;20090;-47
2023/03/09 01:12:16;;;;;;;63.10;22.38;;;;;;;;;;4953519;28;20039;-48
2023/03/09 01:14:42;;;;;;;68.68;23.92;;;;;;;;;;4953040;28;20532;-47
2023/03/09 01:17:09;;;;;;;164.65;31.83;;;;;;;;;;4951096;28;20051;-52
2023/03/09 01:19:36;;;;;;;85.72;25.90;;;;;;;;;;4954868;28;20079;-52
2023/03/09 01:22:03;;;;;;;79.30;23.63;;;;;;;;;;4951968;29;20039;-55
2023/03/09 01:24:29;;;;;;;69.53;21.48;;;;;;;;;;4951916;28;20460;-53
2023/03/09 01:26:56;;;;;;;81.60;25.90;;;;;;;;;;4953651;28;20059;-55
2023/03/09 01:29:22;;;;;;;63.50;24.45;;;;;;;;;;4953932;28;20130;-54
2023/03/09 01:31:49;;;;;;;71.60;22.45;;;;;;;;;;4954558;28;20044;-54
2023/03/09 01:34:15;;;;;;;58.60;21.67;;;;;;;;;;4953478;28;20116;-55
2023/03/09 01:36:42;;;;;;;56.80;20.33;;;;;;;;;;4948987;28;20079;-54
2023/03/09 01:39:10;;;;;;;105.45;25.60;;;;;;;;;;4952782;29;20061;-57
2023/03/09 01:41:36;;;;;;;59.40;21.38;;;;;;;;;;4953921;28;20051;-55
2023/03/09 01:44:03;;;;;;;76.82;22.10;;;;;;;;;;4951567;28;20411;-56
2023/03/09 01:46:39;;;;;;;71.30;21.17;;;;;;;;;;4952013;28;20078;-56
2023/03/09 01:49:09;;;;;;;80.97;19.45;;;;;;;;;;4950071;29;20043;-56
2023/03/09 01:51:39;;;;;;;86.05;20.42;;;;;;;;;;4951950;28;20067;-55
2023/03/09 01:54:06;;;;;;;65.60;21.33;;;;;;;;;;4953296;28;20154;-56
2023/03/09 01:56:34;;;;;;;60.38;19.23;;;;;;;;;;4952169;28;20075;-56
2023/03/09 01:59:02;;;;;;;62.35;19.40;;;;;;;;;;4953091;28;20047;-56
2023/03/09 02:01:29;;;;;;;75.40;20.98;;;;;;;;;;4952235;29;20090;-55
2023/03/09 02:04:04;;;;;;;64.80;16.90;;;;;;;;;;4950730;29;20039;-57
2023/03/09 02:06:31;;;;;;;72.18;20.95;;;;;;;;;;4948627;29;20056;-55
2023/03/09 02:08:58;;;;;;;63.83;20.27;;;;;;;;;;4951197;28;20082;-57
2023/03/09 02:11:24;;;;;;;55.40;19.50;;;;;;;;;;4951892;29;20055;-56
2023/03/09 02:13:53;;;;;;;77.60;22.27;;;;;;;;;;4953187;28;20093;-55
2023/03/09 02:16:19;;;;;;;48.42;17.70;;;;;;;;;;4951771;28;20075;-56
2023/03/09 02:18:46;;;;;;;53.20;19.40;;;;;;;;;;4945456;28;20078;-46
2023/03/09 02:21:26;;;;;;;76.70;21.02;;;;;;;;;;4958469;28;20095;-50
2023/03/09 02:23:56;;;;;;;68.88;19.15;;;;;;;;;;4948925;28;20127;-47
2023/03/09 02:26:28;;;;;;;77.97;19.40;;;;;;;;;;4950651;28;20079;-48
2023/03/09 02:28:55;;;;;;;57.78;17.13;;;;;;;;;;4951593;29;20055;-49
2023/03/09 02:31:23;;;;;;;74.10;19.90;;;;;;;;;;4950569;29;20516;-50
2023/03/09 02:33:49;;;;;;;92.18;21.55;;;;;;;;;;4949782;29;20122;-49
2023/03/09 02:36:16;;;;;;;91.43;21.65;;;;;;;;;;4950423;28;20398;-48
2023/03/09 02:38:46;;;;;;;52.72;17.85;;;;;;;;;;4949067;29;20036;-48
2023/03/09 02:41:13;;;;;;;101.32;21.15;;;;;;;;;;4951006;29;20488;-47
2023/03/09 02:43:44;;;;;;;55.38;17.08;;;;;;;;;;4950874;28;20047;-49
2023/03/09 02:46:10;;;;;;;72.38;18.02;;;;;;;;;;4949008;29;20063;-48
2023/03/09 02:48:39;;;;;;;96.72;21.13;;;;;;;;;;4957183;28;20074;-46
2023/03/09 02:51:06;;;;;;;62.50;16.75;;;;;;;;;;4951804;28;20039;-48
2023/03/09 02:53:32;;;;;;;61.38;16.70;;;;;;;;;;4949660;29;20176;-47
2023/03/09 02:55:59;;;;;;;79.53;16.55;;;;;;;;;;4950718;28;20053;-49
2023/03/09 02:58:26;;;;;;;69.35;15.25;;;;;;;;;;4943454;28;20043;-47
2023/03/09 03:00:53;;;;;;;37.47;11.68;;;;;;;;;;4950360;28;20054;-46
2023/03/09 03:03:20;;;;;;;64.07;13.93;;;;;;;;;;4949620;28;20496;-48
2023/03/09 03:05:48;;;;;;;47.42;13.25;;;;;;;;;;4958671;28;20039;-48
2023/03/09 03:08:15;;;;;;;75.82;14.90;;;;;;;;;;4949976;29;20560;-48
2023/03/09 03:10:59;;;;;;;56.00;13.93;;;;;;;;;;4950986;29;20057;-45
2023/03/09 03:13:25;;;;;;;48.33;12.93;;;;;;;;;;4951345;28;20035;-47
2023/03/09 03:15:57;;;;;;;65.70;13.50;;;;;;;;;;4949237;28;20098;-49
2023/03/09 03:18:23;;;;;;;36.97;12.73;;;;;;;;;;4965733;28;20412;-47
2023/03/09 03:20:49;;;;;;;47.50;12.40;;;;;;;;;;4959644;28;20043;-48
2023/03/09 03:23:16;;;;;;;82.55;14.35;;;;;;;;;;4949384;29;20070;-49
2023/03/09 03:25:48;;;;;;;44.72;10.55;;;;;;;;;;4963298;28;20071;-57
2023/03/09 03:28:15;;;;;;;39.53;11.85;;;;;;;;;;4949844;28;20047;-57
2023/03/09 03:30:48;;;;;;;62.47;13.25;;;;;;;;;;4949603;28;20074;-56
2023/03/09 03:33:15;;;;;;;47.30;11.65;;;;;;;;;;4950140;29;20138;-52
2023/03/09 03:35:42;;;;;;;40.00;11.25;;;;;;;;;;4950473;29;20054;-57
2023/03/09 03:38:09;;;;;;;66.35;12.20;;;;;;;;;;4950728;28;20161;-55
2023/03/09 03:40:36;;;;;;;52.10;12.18;;;;;;;;;;4949967;28;20047;-57
2023/03/09 03:43:06;;;;;;;62.00;13.70;;;;;;;;;;4950080;28;20464;-57
2023/03/09 03:45:32;;;;;;;57.33;13.77;;;;;;;;;;4949465;29;20051;-56
2023/03/09 03:47:59;;;;;;;58.35;13.43;;;;;;;;;;4949343;28;20047;-53
2023/03/09 03:50:28;;;;;;;44.08;12.18;;;;;;;;;;4949962;28;20042;-54
2023/03/09 03:52:59;;;;;;;47.83;13.05;;;;;;;;;;4950630;29;20053;-55
2023/03/09 03:55:27;;;;;;;49.88;14.68;;;;;;;;;;4949138;28;20051;-60
2023/03/09 03:57:54;;;;;;;77.45;15.70;;;;;;;;;;4942121;28;20417;-57
2023/03/09 04:00:21;;;;;;;50.08;14.27;;;;;;;;;;4950413;28;20066;-54
2023/03/09 04:02:50;;;;;;;32.80;12.85;;;;;;;;;;4946567;29;20126;-59
2023/03/09 04:05:27;;;;;;;85.75;18.40;;;;;;;;;;4947749;28;20563;-54
2023/03/09 04:07:53;;;;;;;72.00;19.55;;;;;;;;;;4949786;28;20047;-57
2023/03/09 04:10:20;;;;;;;48.63;17.10;;;;;;;;;;4949602;28;20051;-56
2023/03/09 04:12:46;;;;;;;57.40;16.95;;;;;;;;;;4950148;28;20138;-57
2023/03/09 04:15:13;;;;;;;50.75;17.73;;;;;;;;;;4948915;28;20047;-56
2023/03/09 04:17:39;;;;;;;69.57;19.10;;;;;;;;;;4949245;28;20062;-56
2023/03/09 04:20:07;;;;;;;122.53;23.10;;;;;;;;;;4949407;28;20063;-57
2023/03/09 04:22:34;;;;;;;46.05;17.50;;;;;;;;;;4950825;29;20511;-54
2023/03/09 04:25:01;;;;;;;50.75;16.63;;;;;;;;;;4956555;28;20043;-53
2023/03/09 04:27:28;;;;;;;119.20;21.25;;;;;;;;;;4952035;28;20374;-51
2023/03/09 04:30:04;;;;;;;83.05;18.48;;;;;;;;;;4945251;28;20516;-50
2023/03/09 04:32:32;;;;;;;64.93;19.88;;;;;;;;;;4948313;29;20055;-52
2023/03/09 04:35:05;;;;;;;82.70;19.77;;;;;;;;;;4946305;29;20055;-50
2023/03/09 04:37:33;;;;;;;45.78;16.50;;;;;;;;;;4945547;28;20058;-48
2023/03/09 04:40:00;;;;;;;108.55;22.27;;;;;;;;;;4947739;28;20090;-49
2023/03/09 04:42:29;;;;;;;48.28;16.48;;;;;;;;;;4948388;29;20460;-48
2023/03/09 04:44:55;;;;;;;63.92;19.77;;;;;;;;;;4948576;29;20493;-47
2023/03/09 04:47:23;;;;;;;78.28;18.80;;;;;;;;;;4948429;28;20063;-48
2023/03/09 04:49:50;;;;;;;45.67;16.83;;;;;;;;;;4947491;29;20052;-51
2023/03/09 04:52:16;;;;;;;55.45;18.65;;;;;;;;;;4949616;28;20039;-48
2023/03/09 04:54:43;;;;;;;74.28;20.65;;;;;;;;;;4948296;28;20043;-49
2023/03/09 04:57:11;;;;;;;75.20;20.92;;;;;;;;;;4948589;29;20036;-51
2023/03/09 04:59:38;;;;;;;64.18;21.30;;;;;;;;;;4948506;29;20047;-48
2023/03/09 05:02:04;;;;;;;116.47;23.90;;;;;;;;;;4946647;29;20058;-51
2023/03/09 05:04:41;;;;;;;50.50;19.45;;;;;;;;;;4965642;28;20058;-52
2023/03/09 05:07:07;;;;;;;63.42;21.92;;;;;;;;;;4949851;28;20053;-48
2023/03/09 05:09:34;;;;;;;84.10;20.73;;;;;;;;;;4954632;28;20063;-48
2023/03/09 05:12:01;;;;;;;111.18;26.20;;;;;;;;;;4947939;29;20636;-49
2023/03/09 05:14:30;;;;;;;67.38;20.13;;;;;;;;;;4951836;28;20083;-47
2023/03/09 05:16:58;;;;;;;85.72;20.40;;;;;;;;;;4948915;29;20063;-51
2023/03/09 05:19:25;;;;;;;58.38;19.70;;;;;;;;;;4948458;28;20542;-49
2023/03/09 05:21:55;;;;;;;64.72;18.92;;;;;;;;;;4951743;29;20508;-48
2023/03/09 05:24:22;;;;;;;85.82;20.08;;;;;;;;;;4947783;28;20039;-48
2023/03/09 05:26:49;;;;;;;60.00;17.88;;;;;;;;;;4947824;29;20511;-49
2023/03/09 05:29:16;;;;;;;78.85;20.65;;;;;;;;;;4950187;28;20055;-55
2023/03/09 05:31:44;;;;;;;72.10;19.40;;;;;;;;;;4948289;29;20079;-56
2023/03/09 05:34:11;;;;;;;60.17;17.45;;;;;;;;;;4951829;29;20411;-58
2023/03/09 05:36:38;;;;;;;53.72;16.83;;;;;;;;;;4952748;28;20494;-57
2023/03/09 05:39:10;;;;;;;76.38;18.30;;;;;;;;;;4952176;28;20118;-57
2023/03/09 05:41:37;;;;;;;52.15;15.82;;;;;;;;;;4951392;29;20519;-56
2023/03/09 05:44:11;;;;;;;82.40;18.30;;;;;;;;;;4951887;28;20039;-57
2023/03/09 05:46:37;;;;;;;68.80;16.23;;;;;;;;;;4953073;29;20059;-53
2023/03/09 05:49:04;;;;;;;49.45;15.35;;;;;;;;;;4958511;28;20057;-56
2023/03/09 05:51:31;;;;;;;66.93;17.70;;;;;;;;;;4952992;28;20043;-55
2023/03/09 05:53:57;;;;;;;76.10;18.20;;;;;;;;;;4951239;28;20126;-58
2023/03/09 05:56:25;;;;;;;58.22;15.50;;;;;;;;;;4952885;28;21216;-56
2023/03/09 05:58:56;;;;;;;56.63;16.27;;;;;;;;;;4952498;29;20051;-58
2023/03/09 06:01:25;;;;;;;52.33;15.88;;;;;;;;;;4951575;28;20043;-58
2023/03/09 06:04:04;;;;;;;71.30;18.10;;;;;;;;;;4950723;28;20496;-57
2023/03/09 06:06:32;;;;;;;53.33;15.27;;;;;;;;;;4951539;28;20043;-60
2023/03/09 06:08:59;;;;;;;53.47;17.08;;;;;;;;;;4951090;28;20074;-58
2023/03/09 06:11:26;;;;;;;72.97;17.45;;;;;;;;;;4950804;29;20094;-58
2023/03/09 06:13:54;;;;;;;72.95;18.73;;;;;;;;;;4953144;28;20054;-55
2023/03/09 06:16:26;;;;;;;43.63;13.98;;;;;;;;;;4951041;29;20130;-59
2023/03/09 06:18:56;;;;;;;60.50;17.30;;;;;;;;;;4950801;29;20059;-58
2023/03/09 06:21:23;;;;;;;75.10;19.17;;;;;;;;;;4962277;28;20460;-57
2023/03/09 06:23:52;;;;;;;59.55;17.85;;;;;;;;;;4952008;28;20563;-57
2023/03/09 06:26:19;;;;;;;90.57;21.10;;;;;;;;;;4950381;29;20043;-56
2023/03/09 06:28:51;;;;;;;43.70;17.83;;;;;;;;;;4951976;28;20039;-59
2023/03/09 06:31:18;;;;;;;57.10;17.75;;;;;;;;;;4948717;28;20058;-50
2023/03/09 06:33:48;;;;;;;70.97;17.83;;;;;;;;;;4950258;29;20554;-48
2023/03/09 06:36:17;;;;;;;51.25;14.23;;;;;;;;;;4950560;28;20043;-47
2023/03/09 06:38:46;;;;;;;71.55;18.38;;;;;;;;;;4949798;28;20035;-47
2023/03/09 06:41:14;;;;;;;74.05;18.65;;;;;;;;;;4950365;28;20051;-47
2023/03/09 06:43:44;;;;;;;58.83;18.20;;;;;;;;;;4950727;29;20047;-46
2023/03/09 06:46:11;;;;;;;88.13;20.85;;;;;;;;;;4949703;28;20054;-48
2023/03/09 06:48:38;;;;;;;55.15;16.10;;;;;;;;;;4958629;28;20051;-50
2023/03/09 06:51:04;;;;;;;56.08;17.30;;;;;;;;;;4950183;29;20074;-48
2023/03/09 06:53:31;;;;;;;107.80;20.45;;;;;;;;;;4957855;28;20047;-46
2023/03/09 06:56:04;;;;;;;82.57;18.33;;;;;;;;;;4951199;29;20078;-46
2023/03/09 06:58:33;;;;;;;54.08;15.52;;;;;;;;;;4950789;29;20054;-49
2023/03/09 07:01:10;;;;;;;91.53;22.27;;;;;;;;;;4949544;28;20045;-48
2023/03/09 07:03:37;;;;;;;54.83;16.95;;;;;;;;;;4947187;29;20047;-48
2023/03/09 07:06:04;;;;;;;56.33;16.00;;;;;;;;;;4950787;28;20090;-51
2023/03/09 07:08:30;;;;;;;96.50;17.60;;;;;;;;;;4948490;28;20761;-49
2023/03/09 07:10:57;;;;;;;53.10;14.60;;;;;;;;;;4952509;28;20046;-47
2023/03/09 07:13:27;;;;;;;40.40;13.75;;;;;;;;;;4950784;28;20389;-51
2023/03/09 07:15:53;;;;;;;84.30;16.38;;;;;;;;;;4950773;28;20043;-46
2023/03/09 07:18:21;;;;;;;62.90;15.93;;;;;;;;;;4950513;28;20039;-48
2023/03/09 07:20:47;;;;;;;41.85;13.63;;;;;;;;;;4951394;28;20074;-48
2023/03/09 07:23:13;;;;;;;74.57;16.65;;;;;;;;;;4950828;28;20725;-49
2023/03/09 07:25:40;;;;;;;63.78;16.63;;;;;;;;;;4951055;28;20043;-48
2023/03/09 07:28:07;;;;;;;75.20;15.65;;;;;;;;;;4950686;28;20072;-48
2023/03/09 07:30:38;;;;;;;59.90;15.18;;;;;;;;;;4950404;28;20542;-48
2023/03/09 07:33:05;;;;;;;80.88;15.20;;;;;;;;;;4948648;28;20114;-56
2023/03/09 07:35:31;;;;;;;56.10;14.38;;;;;;;;;;4950072;28;20150;-57
2023/03/09 07:37:58;;;;;;;63.08;12.80;;;;;;;;;;4951920;28;20808;-56
2023/03/09 07:40:24;;;;;;;44.17;12.48;;;;;;;;;;4951016;28;20050;-58
2023/03/09 07:42:54;;;;;;;32.30;11.55;;;;;;;;;;4950598;28;20619;-55
2023/03/09 07:45:41;;;;;;;38.92;12.13;;;;;;;;;;4958767;28;20080;-55
2023/03/09 07:48:08;;;;;;;55.90;13.50;;;;;;;;;;4950380;28;20051;-58
2023/03/09 07:50:34;;;;;;;56.00;13.80;;;;;;;;;;4948856;29;20127;-57
2023/03/09 07:53:01;;;;;;;60.10;12.43;;;;;;;;;;4951434;28;20110;-58
2023/03/09 07:55:29;;;;;;;35.53;11.40;;;;;;;;;;4950837;28;20586;-58
2023/03/09 07:57:55;;;;;;;74.35;13.63;;;;;;;;;;4950594;28;20432;-57
2023/03/09 08:00:23;;;;;;;44.17;12.13;;;;;;;;;;4951107;28;20448;-55
2023/03/09 08:02:49;;;;;;;58.80;13.07;;;;;;;;;;4950827;28;20110;-56
2023/03/09 08:05:18;;;;;;;67.22;13.73;;;;;;;;;;4950858;28;20127;-54
2023/03/09 08:07:46;;;;;;;38.08;10.85;;;;;;;;;;4951488;28;20055;-56
2023/03/09 08:10:14;;;;;;;38.05;11.15;;;;;;;;;;4949094;29;20051;-58
2023/03/09 08:12:46;;;;;;;62.85;13.23;;;;;;;;;;4950830;28;20047;-56
2023/03/09 08:15:13;;;;;;;58.53;10.47;;;;;;;;;;4951189;28;20043;-55
2023/03/09 08:17:40;;;;;;;60.20;13.02;;;;;;;;;;4950680;28;20058;-58
2023/03/09 08:20:09;;;;;;;61.97;14.75;;;;;;;;;;4951160;28;20150;-58
2023/03/09 08:22:36;;;;;;;59.63;17.60;;;;;;;;;;4950487;29;20051;-57
2023/03/09 08:25:03;;;;;;;77.35;15.32;;;;;;;;;;4950545;28;20071;-56
2023/03/09 08:27:36;;;;;;;35.72;10.93;;;;;;;;;;4950564;28;20047;-58
2023/03/09 08:30:03;;;;;;;51.00;9.30;;;;;;;;;;4947577;29;20052;-55
2023/03/09 08:32:29;;;;;;;71.78;12.68;;;;;;;;;;4950489;29;20043;-57
2023/03/09 08:34:56;;;;;;;45.00;10.50;;;;;;;;;;4951138;28;20055;-57
2023/03/09 08:37:23;;;;;;;51.03;10.35;;;;;;;;;;4950093;28;20050;-59
2023/03/09 08:39:52;;;;;;;46.78;10.85;;;;;;;;;;4949613;28;20047;-57
2023/03/09 08:42:18;;;;;;;60.45;10.98;;;;;;;;;;4946458;28;20111;-51
2023/03/09 08:44:45;;;;;;;57.13;10.40;;;;;;;;;;4947714;28;20134;-50
2023/03/09 08:47:11;;;;;;;91.82;13.27;;;;;;;;;;4949434;28;20043;-48
2023/03/09 08:49:40;;;;;;;45.97;9.80;;;;;;;;;;4950446;28;20039;-49
2023/03/09 08:52:07;;;;;;;46.55;9.55;;;;;;;;;;4949558;29;20407;-49
2023/03/09 08:54:34;;;;;;;51.55;9.60;;;;;;;;;;4951571;28;20039;-51
2023/03/09 08:57:00;;;;;;;71.88;10.77;;;;;;;;;;4952853;28;20035;-50
2023/03/09 08:59:26;;;;;;;48.80;10.35;;;;;;;;;;4953126;28;20043;-47
2023/03/09 09:01:53;;;;;;;75.80;11.65;;;;;;;;;;4953908;28;20536;-51
2023/03/09 09:04:20;;;;;;;33.13;9.93;;;;;;;;;;4953583;28;20046;-49
2023/03/09 09:06:47;;;;;;;43.85;10.10;;;;;;;;;;4953406;28;20533;-48
2023/03/09 09:09:13;;;;;;;50.17;9.23;;;;;;;;;;4951324;29;20408;-51
2023/03/09 09:11:39;;;;;;;42.72;9.00;;;;;;;;;;4953622;28;20044;-52
2023/03/09 09:14:06;;;;;;;51.22;9.75;;;;;;;;;;4954051;28;20040;-50
2023/03/09 09:16:33;;;;;;;38.70;8.57;;;;;;;;;;4953152;28;20083;-47
2023/03/09 09:18:59;;;;;;;43.88;9.57;;;;;;;;;;4952767;28;20483;-49
2023/03/09 09:21:27;;;;;;;40.58;8.20;;;;;;;;;;4953232;28;20045;-46
2023/03/09 09:23:54;;;;;;;53.10;8.57;;;;;;;;;;4952800;28;20114;-50
2023/03/09 09:26:21;;;;;;;43.50;9.50;;;;;;;;;;4953399;28;20872;-50
2023/03/09 09:28:47;;;;;;;41.35;9.10;;;;;;;;;;4953930;28;20058;-47
2023/03/09 09:31:18;;;;;;;43.72;8.90;;;;;;;;;;4952640;29;20047;-49
2023/03/09 09:33:46;;;;;;;40.17;9.40;;;;;;;;;;4967431;28;20048;-47
2023/03/09 09:36:14;;;;;;;43.40;9.18;;;;;;;;;;4952804;28;20538;-49
2023/03/09 09:38:42;;;;;;;76.97;11.10;;;;;;;;;;4952363;28;20054;-49
2023/03/09 09:41:32;;;;;;;169.25;17.30;;;;;;;;;;4951552;28;20122;-47
2023/03/09 09:44:02;;;;;;;83.68;11.13;;;;;;;;;;4944744;29;20089;-49
2023/03/09 09:46:30;;;;;;;31.60;7.43;;;;;;;;;;4949852;28;20040;-55
2023/03/09 09:48:57;;;;;;;38.33;8.07;;;;;;;;;;4952032;28;20081;-50
2023/03/09 09:51:40;;;;;;;55.80;8.90;;;;;;;;;;4961539;28;20055;-55
2023/03/09 09:54:16;;;;;;;71.53;10.02;;;;;;;;;;4949760;29;20079;-49
2023/03/09 09:56:55;;;;;;;86.80;10.45;;;;;;;;;;4951617;29;20055;-57
2023/03/09 09:59:29;;;;;;;55.05;8.40;;;;;;;;;;4950917;29;20047;-53
2023/03/09 10:02:01;;;;;;;89.22;10.10;;;;;;;;;;4951863;29;20070;-51
2023/03/09 10:04:31;;;;;;;35.30;6.35;;;;;;;;;;4952558;28;20039;-52
2023/03/09 10:07:00;;;;;;;35.25;6.15;;;;;;;;;;4952326;28;20045;-54
2023/03/09 10:09:28;;;;;;;41.05;7.03;;;;;;;;;;4951885;28;20054;-54
2023/03/09 10:12:14;;;;;;;67.70;9.98;;;;;;;;;;4952084;28;20551;-60
2023/03/09 10:14:47;;;;;;;58.38;8.52;;;;;;;;;;4950366;29;20046;-53
2023/03/09 10:17:18;;;;;;;66.22;10.05;;;;;;;;;;4952493;28;20044;-53
2023/03/09 10:19:46;;;;;;;57.15;7.93;;;;;;;;;;4952334;29;20043;-52
2023/03/09 10:22:12;;;;;;;49.95;7.43;;;;;;;;;;4951225;29;20122;-55
2023/03/09 10:24:40;;;;;;;42.00;7.95;;;;;;;;;;4951895;28;20411;-53
2023/03/09 10:27:25;;;;;;;51.33;7.45;;;;;;;;;;4952121;28;20500;-54
2023/03/09 10:29:52;;;;;;;49.33;7.97;;;;;;;;;;4950296;29;20121;-55
2023/03/09 10:32:49;;;;;;;63.63;8.43;;;;;;;;;;4948633;29;20055;-55
2023/03/09 10:35:20;;;;;;;45.92;5.97;;;;;;;;;;4950787;29;20043;-54
2023/03/09 10:37:49;;;;;;;37.05;6.43;;;;;;;;;;4952067;29;20051;-53
2023/03/09 10:40:20;;;;;;;34.08;5.40;;;;;;;;;;4951078;28;20067;-51
2023/03/09 10:42:46;;;;;;;43.00;7.32;;;;;;;;;;4951611;28;20039;-51
2023/03/09 10:45:16;;;;;;;45.08;6.53;;;;;;;;;;4951708;29;20069;-49
2023/03/09 10:48:18;;;;;;;37.13;6.50;;;;;;;;;;4944294;29;20062;-52
2023/03/09 10:50:55;;;;;;;33.42;6.40;;;;;;;;;;4949464;28;20051;-52
2023/03/09 10:53:21;;;;;;;104.65;11.38;;;;;;;;;;4945019;28;20043;-47
2023/03/09 10:55:48;;;;;;;49.08;7.38;;;;;;;;;;4946663;28;20512;-47
2023/03/09 10:58:28;;;;;;;44.22;7.72;;;;;;;;;;4948625;28;20130;-47
2023/03/09 11:00:56;;;;;;;54.50;8.45;;;;;;;;;;4946132;28;20126;-46
2023/03/09 11:03:25;;;;;;;48.83;7.93;;;;;;;;;;4948049;29;20098;-46
2023/03/09 11:05:51;;;;;;;49.08;8.48;;;;;;;;;;4951359;28;20130;-46
2023/03/09 11:08:26;;;;;;;84.80;10.38;;;;;;;;;;4947388;29;20534;-46
2023/03/09 11:11:05;;;;;;;55.03;7.82;;;;;;;;;;4947909;29;20538;-46
2023/03/09 11:13:34;;;;;;;50.28;7.53;;;;;;;;;;4947812;29;20055;-45
2023/03/09 11:16:06;;;;;;;58.17;7.50;;;;;;;;;;4943958;29;20197;-45
2023/03/09 11:18:32;;;;;;;60.28;8.45;;;;;;;;;;4947402;28;20719;-46
2023/03/09 11:20:59;;;;;;;42.33;7.72;;;;;;;;;;4948282;29;20496;-44
2023/03/09 11:23:27;;;;;;;74.32;9.20;;;;;;;;;;4931872;28;20054;-46
2023/03/09 11:26:03;;;;;;;65.68;9.10;;;;;;;;;;4950619;29;20066;-48
2023/03/09 11:28:35;;;;;;;57.97;8.57;;;;;;;;;;4950306;28;20041;-48
2023/03/09 11:31:02;;;;;;;63.10;9.25;;;;;;;;;;4949962;29;20106;-46
2023/03/09 11:33:29;;;;;;;60.40;9.23;;;;;;;;;;4948382;29;20102;-47
2023/03/09 11:35:56;;;;;;;56.30;9.50;;;;;;;;;;4949142;29;20098;-46
2023/03/09 11:38:25;;;;;;;74.78;9.52;;;;;;;;;;4949566;28;20066;-48
2023/03/09 11:40:59;;;;;;;58.97;8.35;;;;;;;;;;4950534;29;20043;-46
2023/03/09 11:43:32;;;;;;;61.30;8.88;;;;;;;;;;4948891;29;20039;-47
2023/03/09 11:46:00;;;;;;;80.97;10.55;;;;;;;;;;4948276;29;20656;-46
2023/03/09 11:48:33;;;;;;;49.22;7.35;;;;;;;;;;4949879;28;20047;-47
2023/03/09 11:51:03;;;;;;;51.42;8.00;;;;;;;;;;4950009;28;20102;-46
2023/03/09 11:53:41;;;;;;;97.75;11.77;;;;;;;;;;4949770;28;20074;-52
2023/03/09 11:56:13;;;;;;;59.40;9.45;;;;;;;;;;4946013;28;20126;-55
2023/03/09 11:58:42;;;;;;;65.32;9.40;;;;;;;;;;4951199;29;20449;-50
2023/03/09 12:01:22;;;;;;;42.30;8.48;;;;;;;;;;4950772;29;20042;-55
2023/03/09 12:03:54;;;;;;;55.22;8.52;;;;;;;;;;4950711;28;20061;-54
2023/03/09 12:06:32;;;;;;;37.97;8.10;;;;;;;;;;4946924;29;20074;-53
2023/03/09 12:09:00;;;;;;;42.70;7.70;;;;;;;;;;4949986;28;20032;-54
2023/03/09 12:11:36;;;;;;;68.47;8.23;;;;;;;;;;4950918;29;20055;-50
2023/03/09 12:14:25;;;;;;;42.97;7.03;;;;;;;;;;4950846;29;20043;-50
2023/03/09 12:16:55;;;;;;;37.42;7.85;;;;;;;;;;4951098;29;20063;-55
2023/03/09 12:19:24;;;;;;;48.83;7.88;;;;;;;;;;4950791;28;20043;-53
2023/03/09 12:22:00;;;;;;;60.45;9.57;;;;;;;;;;4949697;28;20043;-55
2023/03/09 12:24:40;;;;;;;44.53;7.82;;;;;;;;;;4946454;29;20043;-54
2023/03/09 12:27:06;;;;;;;85.95;10.65;;;;;;;;;;4949509;28;20499;-53
2023/03/09 12:29:59;;;;;;;63.85;9.40;;;;;;;;;;4952368;28;20039;-52
2023/03/09 12:32:26;;;;;;;91.05;9.63;;;;;;;;;;4953829;28;20063;-52
2023/03/09 12:34:54;;;;;;;28.38;5.50;;;;;;;;;;4949613;29;20047;-51
2023/03/09 12:37:36;;;;;;;32.08;6.13;;;;;;;;;;4953791;28;20050;-52
2023/03/09 12:40:30;;;;;;;63.58;8.98;;;;;;;;;;4952923;29;20342;-54
2023/03/09 12:42:57;;;;;;;48.28;7.35;;;;;;;;;;4953067;28;20066;-51
2023/03/09 12:45:29;;;;;;;43.50;8.75;;;;;;;;;;4950039;29;20046;-54
2023/03/09 12:47:56;;;;;;;57.20;7.32;;;;;;;;;;4950259;29;20043;-53
2023/03/09 12:50:31;;;;;;;56.45;7.63;;;;;;;;;;4954187;29;20050;-50
2023/03/09 12:53:04;;;;;;;43.63;6.95;;;;;;;;;;4953621;29;20129;-54
2023/03/09 12:55:33;;;;;;;52.58;6.97;;;;;;;;;;4953376;28;20039;-56
2023/03/09 12:58:21;;;;;;;44.00;6.85;;;;;;;;;;4952870;28;20309;-52
2023/03/09 13:00:49;;;;;;;37.67;6.57;;;;;;;;;;4952738;28;20067;-55
2023/03/09 13:03:22;;;;;;;30.02;4.82;;;;;;;;;;4954885;28;20031;-52
2023/03/09 13:05:49;;;;;;;45.33;7.30;;;;;;;;;;4952354;28;20071;-55
2023/03/09 13:08:27;;;;;;;52.28;7.07;;;;;;;;;;4953890;28;20063;-53
2023/03/09 13:11:12;;;;;;;29.35;6.00;;;;;;;;;;4952324;29;20061;-55
2023/03/09 13:13:40;;;;;;;45.53;8.25;;;;;;;;;;4951472;28;20407;-44
2023/03/09 13:16:25;;;;;;;45.50;6.93;;;;;;;;;;4952897;28;20047;-45
2023/03/09 13:19:12;;;;;;;46.67;7.10;;;;;;;;;;4953104;28;20050;-45
2023/03/09 13:21:43;;;;;;;68.32;8.50;;;;;;;;;;4949321;29;20039;-44
2023/03/09 13:24:27;;;;;;;47.97;8.43;;;;;;;;;;4952763;29;20070;-45
2023/03/09 13:27:01;;;;;;;59.00;9.30;;;;;;;;;;4951133;29;20126;-45
2023/03/09 13:29:28;;;;;;;56.58;9.20;;;;;;;;;;4951366;28;20039;-44
2023/03/09 13:31:56;;;;;;;62.92;10.68;;;;;;;;;;4953304;28;20047;-47
2023/03/09 13:34:24;;;;;;;46.15;10.07;;;;;;;;;;4953005;28;20043;-45
2023/03/09 13:36:53;;;;;;;30.63;8.82;;;;;;;;;;4952329;28;20420;-46
2023/03/09 13:39:24;;;;;;;35.25;7.13;;;;;;;;;;4951834;28;20047;-45
2023/03/09 13:41:51;;;;;;;67.28;9.88;;;;;;;;;;4951135;28;20090;-46
2023/03/09 13:44:20;;;;;;;45.67;8.38;;;;;;;;;;4952518;28;20059;-45
2023/03/09 13:46:47;;;;;;;46.28;8.27;;;;;;;;;;4952004;29;20062;-44
2023/03/09 13:49:33;;;;;;;40.88;5.65;;;;;;;;;;4951882;28;20879;-43
2023/03/09 13:52:01;;;;;;;58.03;7.45;;;;;;;;;;4949942;28;20238;-46
2023/03/09 13:54:31;;;;;;;63.25;8.40;;;;;;;;;;4951299;28;20049;-45
2023/03/09 13:57:03;;;;;;;52.35;7.63;;;;;;;;;;4952415;29;20040;-44
2023/03/09 13:59:42;;;;;;;74.95;8.40;;;;;;;;;;4951905;28;20063;-44
2023/03/09 14:02:11;;;;;;;36.97;5.78;;;;;;;;;;4953386;28;20481;-46
2023/03/09 14:04:49;;;;;;;44.97;6.10;;;;;;;;;;4952068;29;20122;-47
2023/03/09 14:07:17;;;;;;;36.10;5.28;;;;;;;;;;4951695;29;20127;-44
2023/03/09 14:09:49;;;;;;;24.52;4.90;;;;;;;;;;4951211;28;20039;-44
2023/03/09 14:12:23;;;;;;;90.13;9.43;;;;;;;;;;4950763;28;20035;-45
2023/03/09 14:14:49;;;;;;;98.90;9.90;;;;;;;;;;4951594;29;20511;-52
2023/03/09 14:17:17;;;;;;;35.00;6.10;;;;;;;;;;4952499;28;20059;-53
2023/03/09 14:19:49;;;;;;;40.80;6.50;;;;;;;;;;4953165;29;20130;-55
2023/03/09 14:22:19;;;;;;;20.25;4.38;;;;;;;;;;4952086;29;20039;-53
2023/03/09 14:24:46;;;;;;;59.53;7.35;;;;;;;;;;4951424;28;20047;-54
2023/03/09 14:27:13;;;;;;;33.90;5.60;;;;;;;;;;4952862;28;20049;-52
2023/03/09 14:29:40;;;;;;;56.38;7.50;;;;;;;;;;4952361;28;20054;-50
2023/03/09 14:32:16;;;;;;;60.67;7.30;;;;;;;;;;4953347;28;20074;-52
2023/03/09 14:34:43;;;;;;;29.92;5.43;;;;;;;;;;4952719;29;20059;-54